createdAt,value
2018-02-01T00:01:34.315Z,10.20
2018-02-01T00:04:44.266Z,8.98
2018-02-01T00:07:54.173Z,5.75
2018-02-01T00:11:04.238Z,7.22
2018-02-01T00:14:14.948Z,10.25
2018-02-01T00:17:26.170Z,9.30
2018-02-01T00:20:36.353Z,6.70
2018-02-01T00:23:46.335Z,7.43
2018-02-01T00:26:55.675Z,6.18
2018-02-01T00:30:05.734Z,7.37
2018-02-01T00:33:16.010Z,6.53
2018-02-01T00:36:26.003Z,5.82
2018-02-01T00:39:37.092Z,6.25
2018-02-01T00:42:47.926Z,6.37
2018-02-01T00:45:58.060Z,7.00
2018-02-01T00:49:08.019Z,6.00
2018-02-01T00:52:18.021Z,7.22
2018-02-01T00:55:28.762Z,6.35
2018-02-01T00:58:38.662Z,6.90
2018-02-01T01:01:48.472Z,6.03
2018-02-01T01:04:58.441Z,6.32
2018-02-01T01:08:07.921Z,6.68
2018-02-01T01:11:19.090Z,6.10
2018-02-01T01:14:29.542Z,6.45
2018-02-01T01:17:40.141Z,6.45
2018-02-01T01:20:50.784Z,6.20
2018-02-01T01:24:01.375Z,6.68
2018-02-01T01:27:11.266Z,6.53
2018-02-01T01:30:21.463Z,7.22
2018-02-01T01:33:31.251Z,6.10
2018-02-01T01:36:41.069Z,6.37
2018-02-01T01:39:51.709Z,6.12
2018-02-01T01:43:01.769Z,7.12
2018-02-01T01:46:10.938Z,6.82
2018-02-01T01:49:21.970Z,6.30
2018-02-01T01:52:32.142Z,6.78
2018-02-01T01:55:42.614Z,6.57
2018-02-01T01:58:53.584Z,6.62
2018-02-01T02:02:03.659Z,6.22
2018-02-01T02:05:14.402Z,6.60
2018-02-01T02:08:25.734Z,6.45
2018-02-01T02:11:35.850Z,6.72
2018-02-01T02:14:45.587Z,6.65
2018-02-01T02:17:55.539Z,6.55
2018-02-01T02:21:05.689Z,6.53
2018-02-01T02:24:16.893Z,7.15
2018-02-01T02:27:27.392Z,6.37
2018-02-01T02:30:37.529Z,6.72
2018-02-01T02:33:47.659Z,6.57
2018-02-01T02:36:57.602Z,6.10
2018-02-01T02:40:07.716Z,6.30
2018-02-01T02:43:18.103Z,5.55
2018-02-01T02:46:28.596Z,6.53
2018-02-01T02:49:38.973Z,6.30
2018-02-01T02:52:49.733Z,6.15
2018-02-01T02:56:00.033Z,6.35
2018-02-01T02:59:09.815Z,6.40
2018-02-01T03:02:19.540Z,6.00
2018-02-01T03:05:29.250Z,6.82
2018-02-01T03:08:38.961Z,7.03
2018-02-01T03:11:48.850Z,6.30
2018-02-01T03:14:59.596Z,6.90
2018-02-01T03:18:09.568Z,6.32
2018-02-01T03:21:19.620Z,5.72
2018-02-01T03:24:29.330Z,6.32
2018-02-01T03:27:39.949Z,6.82
2018-02-01T03:30:49.934Z,6.18
2018-02-01T03:34:00.397Z,6.90
2018-02-01T03:37:11.039Z,7.22
2018-02-01T03:40:21.410Z,6.65
2018-02-01T03:43:32.310Z,6.45
2018-02-01T03:46:42.729Z,6.15
2018-02-01T03:49:53.124Z,6.53
2018-02-01T03:53:03.690Z,6.37
2018-02-01T03:56:13.422Z,6.07
2018-02-01T03:59:23.395Z,5.35
2018-02-01T04:02:33.419Z,6.05
2018-02-01T04:05:43.318Z,6.03
2018-02-01T04:08:52.829Z,5.70
2018-02-01T04:12:03.079Z,7.05
2018-02-01T04:15:13.825Z,5.90
2018-02-01T04:18:24.089Z,6.12
2018-02-01T04:21:34.102Z,5.68
2018-02-01T04:24:43.945Z,6.12
2018-02-01T04:27:53.830Z,6.35
2018-02-01T04:31:03.757Z,5.20
2018-02-01T04:34:13.674Z,6.15
2018-02-01T04:37:23.685Z,6.03
2018-02-01T04:40:33.418Z,5.65
2018-02-01T04:43:43.336Z,6.30
2018-02-01T04:46:54.208Z,5.93
2018-02-01T04:50:04.050Z,5.18
2018-02-01T04:53:14.639Z,8.82
2018-02-01T04:56:24.149Z,5.35
2018-02-01T04:59:34.602Z,5.32
2018-02-01T05:02:44.518Z,6.07
2018-02-01T05:05:55.226Z,5.95
2018-02-01T05:09:05.604Z,5.22
2018-02-01T05:12:16.592Z,6.72
2018-02-01T05:15:26.512Z,5.53
2018-02-01T05:18:37.143Z,6.97
2018-02-01T05:21:47.001Z,5.22
2018-02-01T05:24:56.513Z,5.47
2018-02-01T05:28:06.547Z,5.25
2018-02-01T05:31:16.306Z,5.87
2018-02-01T05:34:26.397Z,6.18
2018-02-01T05:37:37.109Z,5.82
2018-02-01T05:40:46.809Z,6.25
2018-02-01T05:43:56.611Z,6.47
2018-02-01T05:47:06.661Z,5.78
2018-02-01T05:50:16.591Z,6.35
2018-02-01T05:53:26.469Z,5.78
2018-02-01T05:56:36.601Z,6.70
2018-02-01T05:59:47.918Z,6.10
2018-02-01T06:02:58.390Z,5.93
2018-02-01T06:06:08.262Z,5.50
2018-02-01T06:09:19.194Z,5.72
2018-02-01T06:12:30.205Z,6.10
2018-02-01T06:15:40.578Z,5.70
2018-02-01T06:18:50.479Z,6.40
2018-02-01T06:22:00.438Z,5.10
2018-02-01T06:25:10.525Z,5.85
2018-02-01T06:28:20.329Z,6.10
2018-02-01T06:31:30.158Z,5.25
2018-02-01T06:34:40.858Z,6.60
2018-02-01T06:37:50.749Z,6.47
2018-02-01T06:41:00.607Z,7.00
2018-02-01T06:44:11.216Z,5.55
2018-02-01T06:47:21.177Z,6.10
2018-02-01T06:50:31.993Z,5.80
2018-02-01T06:53:41.926Z,5.40
2018-02-01T06:56:53.190Z,7.30
2018-02-01T07:00:03.331Z,7.32
2018-02-01T07:03:13.282Z,6.00
2018-02-01T07:06:24.015Z,5.72
2018-02-01T07:09:34.105Z,5.35
2018-02-01T07:12:44.484Z,6.35
2018-02-01T07:15:54.899Z,4.75
2018-02-01T07:19:06.018Z,6.10
2018-02-01T07:22:16.334Z,6.35
2018-02-01T07:25:25.865Z,5.70
2018-02-01T07:28:36.007Z,6.22
2018-02-01T07:31:46.005Z,6.47
2018-02-01T07:34:55.976Z,6.75
2018-02-01T07:38:05.828Z,6.05
2018-02-01T07:41:15.620Z,7.30
2018-02-01T07:44:25.542Z,6.87
2018-02-01T07:47:35.432Z,7.20
2018-02-01T07:50:46.017Z,6.78
2018-02-01T07:53:55.567Z,7.70
2018-02-01T07:57:06.432Z,7.75
2018-02-01T08:00:28.158Z,6.50
2018-02-01T08:03:38.395Z,6.85
2018-02-01T08:06:48.384Z,7.40
2018-02-01T08:09:58.083Z,7.75
2018-02-01T08:13:07.971Z,7.45
2018-02-01T08:16:18.762Z,7.97
2018-02-01T08:19:28.584Z,9.05
2018-02-01T08:22:38.369Z,8.80
2018-02-01T08:25:49.152Z,8.57
2018-02-01T08:28:59.240Z,8.23
2018-02-01T08:32:09.601Z,7.12
2018-02-01T08:35:19.506Z,7.80
2018-02-01T08:38:29.585Z,6.82
2018-02-01T08:41:39.967Z,6.68
2018-02-01T08:44:50.707Z,6.80
2018-02-01T08:48:01.567Z,6.37
2018-02-01T08:51:11.658Z,6.62
2018-02-01T08:54:21.444Z,7.03
2018-02-01T08:57:32.379Z,7.60
2018-02-01T09:00:42.282Z,6.95
2018-02-01T09:03:52.427Z,7.90
2018-02-01T09:07:02.507Z,9.48
2018-02-01T09:10:13.038Z,7.65
2018-02-01T09:13:23.265Z,8.40
2018-02-01T09:16:33.892Z,7.12
2018-02-01T09:19:43.846Z,14.45
2018-02-01T09:22:55.328Z,7.60
2018-02-01T09:26:05.430Z,7.07
2018-02-01T09:29:15.245Z,8.00
2018-02-01T09:32:25.743Z,8.15
2018-02-01T09:35:35.578Z,7.20
2018-02-01T09:38:46.283Z,9.15
2018-02-01T09:41:58.058Z,7.62
2018-02-01T09:45:08.277Z,8.68
2018-02-01T09:48:18.355Z,12.75
2018-02-01T09:51:29.387Z,11.15
2018-02-01T09:54:39.756Z,8.57
2018-02-01T09:57:49.441Z,8.32
2018-02-01T10:00:59.234Z,7.75
2018-02-01T10:04:08.951Z,6.30
2018-02-01T10:07:18.614Z,7.70
2018-02-01T10:10:28.575Z,9.40
2018-02-01T10:13:49.466Z,9.10
2018-02-01T10:20:35.102Z,7.60
2018-02-01T10:23:45.431Z,8.52
2018-02-01T10:26:55.795Z,7.30
2018-02-01T10:30:05.603Z,10.18
2018-02-01T10:33:15.388Z,8.15
2018-02-01T10:36:25.562Z,8.77
2018-02-01T10:39:35.612Z,8.27
2018-02-01T10:42:46.012Z,8.85
2018-02-01T10:45:56.602Z,8.23
2018-02-01T10:49:07.223Z,9.50
2018-02-01T10:52:17.161Z,8.00
2018-02-01T10:55:26.968Z,8.23
2018-02-01T10:58:37.207Z,8.25
2018-02-01T11:01:47.702Z,7.90
2018-02-01T11:04:58.410Z,8.25
2018-02-01T11:08:08.598Z,9.10
2018-02-01T11:11:18.583Z,8.10
2018-02-01T11:14:28.441Z,7.03
2018-02-01T11:17:38.174Z,8.07
2018-02-01T11:20:48.031Z,9.05
2018-02-01T11:23:57.743Z,8.90
2018-02-01T11:27:07.554Z,7.00
2018-02-01T11:30:17.289Z,7.65
2018-02-01T11:33:27.122Z,7.75
2018-02-01T11:36:36.897Z,8.55
2018-02-01T11:39:46.715Z,7.75
2018-02-01T11:42:56.764Z,8.25
2018-02-01T11:46:06.719Z,9.70
2018-02-01T11:49:17.365Z,8.88
2018-02-01T11:52:27.488Z,9.40
2018-02-01T11:55:38.004Z,12.23
2018-02-01T11:58:47.803Z,11.48
2018-02-01T12:01:58.146Z,8.45
2018-02-01T12:05:08.230Z,7.20
2018-02-01T12:08:18.287Z,7.05
2018-02-01T12:11:28.191Z,10.48
2018-02-01T12:14:38.614Z,7.95
2018-02-01T12:17:48.902Z,11.18
2018-02-01T12:20:58.317Z,9.75
2018-02-01T12:24:08.150Z,8.02
2018-02-01T12:27:18.223Z,9.40
2018-02-01T12:30:28.809Z,6.45
2018-02-01T12:33:38.902Z,10.18
2018-02-01T12:36:49.063Z,7.95
2018-02-01T12:39:58.820Z,9.52
2018-02-01T12:43:09.074Z,8.60
2018-02-01T12:46:18.940Z,8.55
2018-02-01T12:49:30.134Z,8.10
2018-02-01T12:52:40.531Z,7.50
2018-02-01T12:55:51.106Z,9.00
2018-02-01T12:59:01.418Z,8.02
2018-02-01T13:02:12.285Z,10.18
2018-02-01T13:05:22.341Z,8.30
2018-02-01T13:08:32.256Z,9.25
2018-02-01T13:11:42.779Z,8.18
2018-02-01T13:14:53.869Z,8.57
2018-02-01T13:18:04.582Z,8.95
2018-02-01T13:21:15.180Z,8.85
2018-02-01T13:24:25.316Z,7.97
2018-02-01T13:27:35.351Z,8.85
2018-02-01T13:30:45.465Z,7.53
2018-02-01T13:33:55.691Z,9.13
2018-02-01T13:37:05.094Z,8.20
2018-02-01T13:40:15.003Z,7.80
2018-02-01T13:43:26.302Z,8.60
2018-02-01T13:46:36.874Z,8.70
2018-02-01T13:49:47.582Z,7.43
2018-02-01T13:52:57.660Z,7.10
2018-02-01T13:56:08.158Z,7.70
2018-02-01T13:59:18.409Z,7.25
2018-02-01T14:02:29.118Z,8.43
2018-02-01T14:05:39.278Z,7.05
2018-02-01T14:08:49.422Z,7.10
2018-02-01T14:11:59.245Z,8.30
2018-02-01T14:15:09.073Z,7.90
2018-02-01T14:18:21.045Z,7.10
2018-02-01T14:21:31.335Z,8.70
2018-02-01T14:24:41.047Z,7.85
2018-02-01T14:27:51.012Z,8.05
2018-02-01T14:31:00.714Z,10.20
2018-02-01T14:34:11.046Z,7.75
2018-02-01T14:37:21.287Z,8.45
2018-02-01T14:40:31.298Z,8.35
2018-02-01T14:43:42.241Z,7.00
2018-02-01T14:46:52.204Z,8.52
2018-02-01T14:50:02.131Z,7.50
2018-02-01T14:53:12.793Z,8.07
2018-02-01T14:56:23.329Z,7.07
2018-02-01T14:59:34.102Z,9.20
2018-02-01T15:02:44.387Z,8.25
2018-02-01T15:05:54.241Z,7.28
2018-02-01T15:09:03.776Z,7.55
2018-02-01T15:12:14.137Z,6.37
2018-02-01T15:15:24.190Z,7.78
2018-02-01T15:18:34.771Z,6.90
2018-02-01T15:21:45.328Z,8.90
2018-02-01T15:24:55.555Z,8.45
2018-02-01T15:28:06.196Z,8.52
2018-02-01T15:31:17.606Z,7.05
2018-02-01T15:34:27.911Z,7.32
2018-02-01T15:37:37.691Z,7.05
2018-02-01T15:40:47.574Z,9.20
2018-02-01T15:43:58.534Z,6.93
2018-02-01T15:47:08.399Z,8.35
2018-02-01T15:50:18.246Z,7.53
2018-02-01T15:53:29.736Z,8.20
2018-02-01T15:56:41.043Z,7.10
2018-02-01T15:59:52.167Z,7.43
2018-02-01T16:03:02.382Z,8.93
2018-02-01T16:06:12.379Z,9.65
2018-02-01T16:09:22.817Z,8.68
2018-02-01T16:12:33.899Z,22.30
2018-02-01T16:15:44.386Z,12.25
2018-02-01T16:18:55.079Z,37.33
2018-02-01T16:22:05.571Z,23.17
2018-02-01T16:25:15.818Z,20.40
2018-02-01T16:28:25.995Z,18.20
2018-02-01T16:31:36.039Z,14.77
2018-02-01T16:34:45.323Z,12.35
2018-02-01T16:37:55.451Z,11.43
2018-02-01T16:41:05.801Z,14.75
2018-02-01T16:44:15.685Z,10.73
2018-02-01T16:47:25.522Z,8.75
2018-02-01T16:50:35.626Z,11.43
2018-02-01T16:53:45.531Z,10.20
2018-02-01T16:56:55.574Z,11.05
2018-02-01T17:00:05.224Z,12.02
2018-02-01T17:03:15.307Z,10.48
2018-02-01T17:06:25.583Z,10.25
2018-02-01T17:09:36.747Z,10.52
2018-02-01T17:12:47.721Z,11.55
2018-02-01T17:15:57.845Z,10.00
2018-02-01T17:19:09.246Z,8.93
2018-02-01T17:22:19.827Z,11.32
2018-02-01T17:25:29.955Z,10.02
2018-02-01T17:28:40.783Z,11.82
2018-02-01T17:31:51.402Z,11.52
2018-02-01T17:35:02.695Z,10.55
2018-02-01T17:38:13.114Z,10.00
2018-02-01T17:41:22.929Z,10.60
2018-02-01T17:44:32.864Z,11.23
2018-02-01T17:47:42.554Z,9.15
2018-02-01T17:50:53.565Z,8.18
2018-02-01T17:54:05.242Z,8.63
2018-02-01T17:57:15.148Z,8.95
2018-02-01T18:00:25.222Z,8.60
2018-02-01T18:03:34.977Z,8.50
2018-02-01T18:06:44.761Z,9.65
2018-02-01T18:09:55.614Z,10.23
2018-02-01T18:13:06.543Z,7.65
2018-02-01T18:16:16.837Z,7.60
2018-02-01T18:19:26.938Z,8.70
2018-02-01T18:22:37.033Z,8.48
2018-02-01T18:25:46.974Z,9.40
2018-02-01T18:28:56.803Z,7.55
2018-02-01T18:32:07.203Z,7.93
2018-02-01T18:35:17.564Z,7.00
2018-02-01T18:38:28.385Z,7.97
2018-02-01T18:41:38.162Z,10.05
2018-02-01T18:44:48.080Z,8.73
2018-02-01T18:47:59.029Z,8.95
2018-02-01T18:51:09.545Z,9.27
2018-02-01T18:54:19.599Z,6.55
2018-02-01T18:57:30.416Z,9.00
2018-02-01T19:00:41.432Z,8.95
2018-02-01T19:03:51.290Z,10.18
2018-02-01T19:07:01.058Z,7.32
2018-02-01T19:10:11.253Z,6.80
2018-02-01T19:13:21.226Z,8.30
2018-02-01T19:16:31.443Z,8.20
2018-02-01T19:19:41.587Z,9.50
2018-02-01T19:22:52.358Z,8.20
2018-02-01T19:26:02.588Z,9.43
2018-02-01T19:29:13.429Z,7.28
2018-02-01T19:32:24.229Z,7.65
2018-02-01T19:35:34.486Z,8.07
2018-02-01T19:38:45.167Z,6.90
2018-02-01T19:41:55.083Z,7.90
2018-02-01T19:45:05.730Z,8.23
2018-02-01T19:48:15.781Z,8.52
2018-02-01T19:51:27.171Z,6.75
2018-02-01T19:57:54.204Z,8.27
2018-02-01T20:01:04.895Z,8.43
2018-02-01T20:04:14.758Z,10.13
2018-02-01T20:07:25.432Z,8.68
2018-02-01T20:10:35.586Z,9.27
2018-02-01T20:13:45.767Z,7.25
2018-02-01T20:16:55.888Z,8.15
2018-02-01T20:20:05.989Z,11.38
2018-02-01T20:23:15.710Z,13.18
2018-02-01T20:26:25.713Z,27.75
2018-02-01T20:29:35.869Z,21.45
2018-02-01T20:32:45.991Z,55.20
2018-02-01T20:35:56.314Z,25.90
2018-02-01T20:39:06.662Z,22.10
2018-02-01T20:42:16.553Z,11.90
2018-02-01T20:45:26.516Z,8.93
2018-02-01T20:48:37.207Z,9.90
2018-02-01T20:51:47.150Z,6.80
2018-02-01T20:54:57.250Z,9.15
2018-02-01T20:58:07.320Z,8.70
2018-02-01T21:01:17.162Z,8.05
2018-02-01T21:04:26.884Z,7.55
2018-02-01T21:07:36.609Z,7.53
2018-02-01T21:10:46.352Z,7.30
2018-02-01T21:13:56.308Z,8.18
2018-02-01T21:17:07.037Z,8.73
2018-02-01T21:20:16.892Z,6.97
2018-02-01T21:23:27.620Z,7.00
2018-02-01T21:26:37.351Z,8.25
2018-02-01T21:29:47.341Z,8.05
2018-02-01T21:32:56.891Z,7.12
2018-02-01T21:36:06.723Z,8.20
2018-02-01T21:39:16.738Z,7.78
2018-02-01T21:42:26.953Z,9.85
2018-02-01T21:45:38.804Z,7.80
2018-02-01T21:48:49.536Z,10.48
2018-02-01T21:52:00.663Z,10.75
2018-02-01T21:55:11.065Z,12.73
2018-02-01T21:58:21.007Z,9.43
2018-02-01T22:01:31.397Z,18.10
2018-02-01T22:04:41.508Z,9.93
2018-02-01T22:07:51.446Z,9.18
2018-02-01T22:11:02.327Z,8.40
2018-02-01T22:14:12.869Z,9.15
2018-02-01T22:17:23.105Z,8.52
2018-02-01T22:20:33.291Z,10.75
2018-02-01T22:23:43.317Z,10.15
2018-02-01T22:26:53.134Z,8.65
2018-02-01T22:30:03.730Z,7.45
2018-02-01T22:33:13.791Z,10.75
2018-02-01T22:36:24.416Z,7.68
2018-02-01T22:39:35.247Z,7.82
2018-02-01T22:42:45.921Z,7.05
2018-02-01T22:45:55.975Z,8.27
2018-02-01T22:49:06.572Z,8.40
2018-02-01T22:52:16.738Z,7.55
2018-02-01T22:55:27.630Z,7.57
2018-02-01T22:58:38.055Z,8.73
2018-02-01T23:01:48.289Z,9.02
2018-02-01T23:04:58.277Z,9.13
2018-02-01T23:08:08.113Z,7.30
2018-02-01T23:11:17.976Z,7.50
2018-02-01T23:14:28.609Z,8.25
2018-02-01T23:17:38.361Z,7.62
2018-02-01T23:20:48.227Z,8.15
2018-02-01T23:23:58.182Z,6.05
2018-02-01T23:27:07.928Z,8.88
2018-02-01T23:30:17.615Z,7.68
2018-02-01T23:33:27.466Z,7.37
2018-02-01T23:36:37.426Z,8.15
2018-02-01T23:39:47.969Z,6.93
2018-02-01T23:42:57.926Z,7.97
2018-02-01T23:46:07.710Z,7.20
2018-02-01T23:49:18.653Z,8.32
2018-02-01T23:52:28.930Z,7.28
2018-02-01T23:55:38.809Z,7.35
2018-02-01T23:58:49.589Z,7.60
